Time;durP1;ratioP1;P1;durP2;ratioP2;P2;SDS_P1;SDS_P2;PMS_P1;PMS_P2;Temp;Humidity;BMP_temperature;BMP_pressure;BME280_temperature;BME280_humidity;BME280_pressure;Samples;Min_cycle;Max_cycle;Signal;HPM_P1;HPM_P2
2023/07/24 00:02:03;;;;;;;18.33;13.50;;;;;;;17.00;100.00;100343.66;5053265;28;20036;-73
2023/07/24 00:04:30;;;;;;;17.90;13.60;;;;;;;17.08;100.00;100355.81;5053128;28;20476;-72
2023/07/24 00:06:56;;;;;;;20.20;13.77;;;;;;;17.10;100.00;100356.28;5053166;28;20535;-71
2023/07/24 00:09:21;;;;;;;19.40;14.30;;;;;;;17.08;100.00;100352.22;5053526;28;20033;-72
2023/07/24 00:11:46;;;;;;;18.23;14.00;;;;;;;17.10;100.00;100352.66;5053563;28;20500;-72
2023/07/24 00:14:12;;;;;;;19.02;14.65;;;;;;;17.08;100.00;100347.44;5053314;28;20040;-72
2023/07/24 00:16:37;;;;;;;19.90;14.48;;;;;;;17.09;100.00;100354.66;5053119;28;20021;-72
2023/07/24 00:19:03;;;;;;;18.80;14.18;;;;;;;17.08;100.00;100341.84;5051619;28;20067;-72
2023/07/24 00:21:28;;;;;;;19.88;14.32;;;;;;;17.09;100.00;100337.88;5052913;28;20166;-72
2023/07/24 00:23:54;;;;;;;18.20;13.13;;;;;;;17.09;100.00;100340.66;5052959;28;20075;-72
2023/07/24 00:26:19;;;;;;;18.55;14.23;;;;;;;17.09;100.00;100337.09;5052898;28;20414;-72
2023/07/24 00:28:44;;;;;;;18.80;14.30;;;;;;;17.10;100.00;100330.28;5052585;28;20420;-72
2023/07/24 00:31:10;;;;;;;18.88;14.27;;;;;;;17.08;100.00;100319.50;5052793;28;20076;-72
2023/07/24 00:33:35;;;;;;;18.60;14.75;;;;;;;17.06;100.00;100323.81;5050703;28;20047;-72
2023/07/24 00:36:00;;;;;;;18.52;14.20;;;;;;;17.07;100.00;100323.44;5052813;28;20024;-73
2023/07/24 00:38:25;;;;;;;19.42;14.60;;;;;;;17.06;100.00;100319.03;5052890;28;20040;-72
2023/07/24 00:40:51;;;;;;;18.92;14.10;;;;;;;17.05;100.00;100313.81;5052530;28;20056;-72
2023/07/24 00:43:16;;;;;;;18.85;13.95;;;;;;;17.05;100.00;100314.63;5052481;28;20033;-73
2023/07/24 00:45:42;;;;;;;18.70;14.20;;;;;;;17.05;100.00;100316.63;5051009;28;20025;-73
2023/07/24 00:48:07;;;;;;;19.45;14.40;;;;;;;17.03;100.00;100317.00;5052566;28;20053;-72
2023/07/24 00:50:33;;;;;;;19.48;14.60;;;;;;;17.04;100.00;100301.84;5052385;28;20039;-72
2023/07/24 00:52:58;;;;;;;18.60;14.38;;;;;;;17.04;100.00;100304.63;5052226;28;20013;-72
2023/07/24 00:55:24;;;;;;;20.00;14.80;;;;;;;16.99;100.00;100286.16;5050680;28;20025;-72
2023/07/24 00:57:50;;;;;;;19.52;14.82;;;;;;;17.02;100.00;100293.00;5052059;28;20029;-73
2023/07/24 01:00:15;;;;;;;18.85;14.40;;;;;;;16.97;100.00;100290.47;5052022;28;20187;-73
2023/07/24 01:02:42;;;;;;;21.42;15.02;;;;;;;16.98;100.00;100295.72;5052207;28;20035;-72
2023/07/24 01:05:08;;;;;;;19.63;14.60;;;;;;;16.97;100.00;100294.09;5052066;28;20482;-72
2023/07/24 01:07:34;;;;;;;19.85;14.93;;;;;;;16.93;100.00;100286.78;5052376;28;20059;-72
2023/07/24 01:09:59;;;;;;;19.70;14.95;;;;;;;16.95;100.00;100302.03;5052690;28;20029;-72
2023/07/24 01:12:32;;;;;;;19.20;14.82;;;;;;;16.97;100.00;100293.28;5052424;28;20025;-72
2023/07/24 01:15:07;;;;;;;20.48;15.05;;;;;;;16.97;100.00;100282.94;5052288;28;20407;-72
2023/07/24 01:17:36;;;;;;;20.27;15.32;;;;;;;16.97;100.00;100276.50;5052417;28;20036;-72
2023/07/24 01:20:06;;;;;;;20.45;15.20;;;;;;;16.95;100.00;100264.91;5052277;28;20029;-72
2023/07/24 01:22:40;;;;;;;20.27;15.23;;;;;;;16.95;100.00;100268.50;5052667;28;20028;-72
2023/07/24 01:25:19;;;;;;;20.20;15.55;;;;;;;16.97;100.00;100259.75;5052779;28;20029;-72
2023/07/24 01:27:45;;;;;;;20.08;15.15;;;;;;;16.96;100.00;100272.91;5052226;28;20048;-72
2023/07/24 01:30:13;;;;;;;19.88;15.00;;;;;;;16.95;100.00;100265.72;5052528;28;20048;-72
2023/07/24 01:32:39;;;;;;;20.40;14.68;;;;;;;16.95;100.00;100262.13;5050845;28;20021;-72
2023/07/24 01:35:05;;;;;;;20.38;14.70;;;;;;;16.95;100.00;100264.91;5052003;28;20036;-72
2023/07/24 01:37:31;;;;;;;20.73;14.70;;;;;;;16.94;100.00;100261.28;5051951;28;20021;-72
2023/07/24 01:39:57;;;;;;;20.23;14.57;;;;;;;16.94;100.00;100250.13;5050771;28;20500;-72
2023/07/24 01:42:23;;;;;;;20.77;14.73;;;;;;;16.93;100.00;100251.28;5052226;28;20067;-72
2023/07/24 01:44:55;;;;;;;21.17;14.63;;;;;;;16.93;100.00;100254.06;5051802;28;20036;-72
2023/07/24 01:47:21;;;;;;;19.65;14.73;;;;;;;16.94;100.00;100255.69;5051723;28;20115;-72
2023/07/24 01:49:47;;;;;;;20.75;14.95;;;;;;;16.94;100.00;100252.91;5052034;28;20079;-72
2023/07/24 01:52:12;;;;;;;21.33;15.02;;;;;;;16.95;100.00;100253.72;5052070;28;20053;-72
2023/07/24 01:54:38;;;;;;;20.17;14.50;;;;;;;16.94;100.00;100255.69;5052164;28;20348;-72
2023/07/24 01:57:04;;;;;;;20.60;15.35;;;;;;;16.93;100.00;100233.69;5052194;28;20021;-73
2023/07/24 01:59:29;;;;;;;20.05;15.07;;;;;;;16.92;100.00;100226.47;5052124;28;20074;-72
2023/07/24 02:01:54;;;;;;;19.90;14.70;;;;;;;16.89;100.00;100228.03;5051938;28;20025;-72
2023/07/24 02:04:22;;;;;;;18.90;13.63;;;;;;;16.89;100.00;100219.66;5052169;28;20024;-73
2023/07/24 02:06:50;;;;;;;19.52;13.77;;;;;;;16.88;100.00;100225.59;5052339;28;20079;-71
2023/07/24 02:09:17;;;;;;;21.10;15.30;;;;;;;16.85;100.00;100227.13;5051951;28;20051;-72
2023/07/24 02:11:42;;;;;;;19.90;14.73;;;;;;;16.86;100.00;100217.56;5051837;28;20056;-73
2023/07/24 02:14:07;;;;;;;19.00;14.05;;;;;;;16.87;100.00;100223.97;5051819;28;20493;-72
2023/07/24 02:16:33;;;;;;;20.02;14.43;;;;;;;16.85;100.00;100218.75;5051767;28;20107;-71
2023/07/24 02:18:58;;;;;;;20.15;13.68;;;;;;;16.85;100.00;100213.16;5051586;28;20025;-72
2023/07/24 02:21:23;;;;;;;19.80;14.32;;;;;;;16.86;100.00;100206.41;5051800;28;20108;-72
2023/07/24 02:23:49;;;;;;;19.05;13.90;;;;;;;16.87;100.00;100213.59;5051685;28;20108;-72
2023/07/24 02:26:14;;;;;;;19.63;14.48;;;;;;;16.86;100.00;100213.97;5051713;28;20465;-71
2023/07/24 02:28:39;;;;;;;18.80;14.77;;;;;;;16.87;100.00;100216.41;5051615;28;20091;-71
2023/07/24 02:31:05;;;;;;;20.20;15.00;;;;;;;16.86;100.00;100216.78;5051470;28;20045;-71
2023/07/24 02:33:30;;;;;;;19.90;14.68;;;;;;;16.85;100.00;100210.38;5051399;28;20096;-71
2023/07/24 02:35:55;;;;;;;20.80;15.00;;;;;;;16.84;100.00;100203.97;5051592;28;20056;-71
2023/07/24 02:38:21;;;;;;;19.20;14.65;;;;;;;16.83;100.00;100198.75;5051615;28;20032;-71
2023/07/24 02:40:46;;;;;;;19.77;14.68;;;;;;;16.88;100.00;100201.25;5051112;28;20040;-71
2023/07/24 02:43:11;;;;;;;19.90;14.68;;;;;;;16.87;100.00;100208.03;5051377;28;20259;-70
2023/07/24 02:45:37;;;;;;;19.58;14.50;;;;;;;16.88;100.00;100203.22;5051460;28;20424;-70
2023/07/24 02:48:03;;;;;;;19.80;14.43;;;;;;;16.88;100.00;100208.81;5050045;28;20044;-71
2023/07/24 02:50:29;;;;;;;20.60;14.82;;;;;;;16.89;100.00;100216.03;5051233;28;20021;-71
2023/07/24 02:52:54;;;;;;;20.63;14.70;;;;;;;16.89;100.00;100218.81;5051064;28;20118;-71
2023/07/24 02:55:19;;;;;;;19.27;14.32;;;;;;;16.87;100.00;100213.59;5051219;28;20075;-71
2023/07/24 02:57:45;;;;;;;18.50;13.95;;;;;;;16.89;100.00;100207.66;5053052;28;20037;-71
2023/07/24 03:00:11;;;;;;;20.92;14.90;;;;;;;16.88;100.00;100206.03;5054599;28;20117;-71
2023/07/24 03:02:36;;;;;;;19.67;13.88;;;;;;;16.88;100.00;100189.25;5054352;28;20028;-72
2023/07/24 03:05:02;;;;;;;20.13;14.30;;;;;;;16.88;100.00;100195.69;5054089;28;20346;-71
2023/07/24 03:07:27;;;;;;;20.48;14.88;;;;;;;16.87;100.00;100208.03;5054427;28;20628;-72
2023/07/24 03:09:53;;;;;;;20.27;13.90;;;;;;;16.84;100.00;100208.75;5054242;28;20119;-70
2023/07/24 03:12:18;;;;;;;18.88;14.02;;;;;;;16.83;100.00;100210.75;5054062;28;20029;-70
2023/07/24 03:14:43;;;;;;;19.65;14.48;;;;;;;16.82;100.00;100214.69;5054096;28;20032;-71
2023/07/24 03:17:09;;;;;;;18.38;13.80;;;;;;;16.79;100.00;100195.06;5053921;28;20021;-71
2023/07/24 03:19:34;;;;;;;19.88;14.18;;;;;;;16.77;100.00;100181.47;5053785;28;20021;-71
2023/07/24 03:21:59;;;;;;;18.92;13.82;;;;;;;16.76;100.00;100176.25;5053920;28;20393;-71
2023/07/24 03:24:25;;;;;;;22.13;14.90;;;;;;;16.74;100.00;100182.22;5053975;28;20503;-71
2023/07/24 03:26:50;;;;;;;19.88;14.55;;;;;;;16.72;100.00;100178.97;5053922;28;20102;-71
2023/07/24 03:29:15;;;;;;;19.42;14.02;;;;;;;16.69;100.00;100190.84;5052335;28;20048;-71
2023/07/24 03:31:41;;;;;;;18.77;13.60;;;;;;;16.63;100.00;100203.47;5053767;28;20086;-71
2023/07/24 03:34:06;;;;;;;18.98;14.13;;;;;;;16.58;100.00;100204.56;5053914;28;20021;-71
2023/07/24 03:36:31;;;;;;;18.95;13.95;;;;;;;16.55;100.00;100196.13;5053657;28;20043;-71
2023/07/24 03:38:57;;;;;;;18.42;13.35;;;;;;;16.47;100.00;100186.75;5053696;28;20036;-72
2023/07/24 03:41:22;;;;;;;17.80;13.15;;;;;;;16.44;100.00;100176.31;5053712;28;20041;-71
2023/07/24 03:43:47;;;;;;;18.70;14.00;;;;;;;16.37;100.00;100185.34;5053902;28;20048;-71
2023/07/24 03:46:13;;;;;;;19.50;14.32;;;;;;;16.33;100.00;100185.25;5053571;28;20125;-71
2023/07/24 03:48:38;;;;;;;19.58;14.02;;;;;;;16.29;100.00;100181.56;5053336;28;20362;-71
2023/07/24 03:51:03;;;;;;;19.40;14.82;;;;;;;16.26;100.00;100173.91;5053307;28;20029;-71
2023/07/24 03:53:29;;;;;;;18.48;13.82;;;;;;;16.21;100.00;100174.97;5051747;28;20021;-71
2023/07/24 03:55:54;;;;;;;18.92;13.85;;;;;;;16.19;100.00;100173.72;5053271;28;20108;-71
2023/07/24 03:58:20;;;;;;;19.25;14.90;;;;;;;16.18;100.00;100180.47;5053248;28;20032;-71
2023/07/24 04:00:46;;;;;;;18.48;13.80;;;;;;;16.17;100.00;100181.66;5052998;28;20032;-70
2023/07/24 04:03:11;;;;;;;20.45;14.43;;;;;;;16.15;100.00;100184.00;5053014;28;20037;-71
2023/07/24 04:05:37;;;;;;;18.92;14.18;;;;;;;16.15;100.00;100187.59;5052999;28;20397;-71
2023/07/24 04:08:02;;;;;;;18.50;13.80;;;;;;;16.13;100.00;100183.56;5052758;28;20086;-71
2023/07/24 04:10:28;;;;;;;19.38;14.60;;;;;;;16.11;100.00;100178.31;5052430;28;20025;-71
2023/07/24 04:12:53;;;;;;;19.13;14.40;;;;;;;16.11;100.00;100183.91;5052929;28;20028;-71
2023/07/24 04:15:19;;;;;;;19.80;14.27;;;;;;;16.09;100.00;100183.47;5052773;28;20036;-71
2023/07/24 04:17:44;;;;;;;21.35;14.60;;;;;;;16.09;100.00;100186.25;5052690;28;20029;-71
2023/07/24 04:20:10;;;;;;;20.17;14.73;;;;;;;16.12;100.00;100199.47;5052748;28;20020;-71
2023/07/24 04:22:35;;;;;;;19.55;14.65;;;;;;;16.11;100.00;100192.25;5052689;28;20036;-71
2023/07/24 04:25:00;;;;;;;20.48;14.45;;;;;;;16.11;100.00;100199.84;5052417;28;20029;-71
2023/07/24 04:27:26;;;;;;;19.52;14.30;;;;;;;16.08;100.00;100197.75;5052501;28;20543;-71
2023/07/24 04:29:51;;;;;;;20.63;15.30;;;;;;;16.06;100.00;100198.94;5052360;28;20051;-71
2023/07/24 04:32:16;;;;;;;19.05;14.30;;;;;;;16.03;100.00;100198.84;5052278;28;20028;-70
2023/07/24 04:34:42;;;;;;;19.92;13.45;;;;;;;16.00;100.00;100194.78;5052271;28;20025;-71
2023/07/24 04:37:07;;;;;;;19.08;13.40;;;;;;;16.02;100.00;100195.25;5052100;28;20029;-70
2023/07/24 04:39:33;;;;;;;19.92;13.85;;;;;;;16.03;100.00;100196.03;5051989;28;20072;-71
2023/07/24 04:41:59;;;;;;;19.98;14.50;;;;;;;16.04;100.00;100195.72;5050864;28;20025;-70
2023/07/24 04:44:24;;;;;;;19.35;14.73;;;;;;;16.03;100.00;100202.44;5052124;28;20033;-70
2023/07/24 04:46:50;;;;;;;19.42;14.50;;;;;;;16.01;100.00;100207.56;5052248;28;20086;-71
2023/07/24 04:49:15;;;;;;;20.90;14.48;;;;;;;16.00;100.00;100202.38;5052029;28;20397;-71
2023/07/24 04:51:41;;;;;;;18.98;13.85;;;;;;;15.99;100.00;100206.31;5051891;28;20441;-70
2023/07/24 04:54:06;;;;;;;18.60;13.65;;;;;;;15.99;100.00;100203.53;5051735;28;20048;-71
2023/07/24 04:56:31;;;;;;;19.27;13.48;;;;;;;15.99;100.00;100197.94;5051784;28;20028;-72
2023/07/24 04:58:57;;;;;;;19.27;13.82;;;;;;;15.96;100.00;100196.69;5051994;28;20432;-72
2023/07/24 05:01:22;;;;;;;18.98;14.15;;;;;;;15.94;100.00;100192.63;5051735;28;20476;-72
2023/07/24 05:03:47;;;;;;;19.95;14.30;;;;;;;15.93;100.00;100193.78;5051820;28;20067;-72
2023/07/24 05:06:13;;;;;;;21.13;13.82;;;;;;;15.91;100.00;100202.53;5051773;28;20082;-71
2023/07/24 05:08:38;;;;;;;20.25;14.50;;;;;;;15.90;100.00;100200.91;5051766;28;20025;-72
2023/07/24 05:11:03;;;;;;;19.73;14.23;;;;;;;15.88;100.00;100204.06;5051931;28;20025;-71
2023/07/24 05:13:28;;;;;;;19.63;14.35;;;;;;;15.90;100.00;100217.63;5051705;28;20118;-72
2023/07/24 05:15:54;;;;;;;20.05;14.07;;;;;;;15.86;100.00;100203.59;5051769;28;20135;-72
2023/07/24 05:18:19;;;;;;;20.30;14.98;;;;;;;15.89;100.00;100207.66;5051598;28;20021;-71
2023/07/24 05:20:47;;;;;;;20.13;14.52;;;;;;;15.87;100.00;100198.84;5051662;28;20032;-73
2023/07/24 05:23:12;;;;;;;19.50;14.60;;;;;;;15.92;100.00;100204.16;5051786;28;20044;-71
2023/07/24 05:25:37;;;;;;;20.50;14.57;;;;;;;15.94;100.00;100209.34;5051451;28;20025;-72
2023/07/24 05:28:03;;;;;;;19.23;14.00;;;;;;;15.96;100.00;100218.19;5051157;28;20801;-71
2023/07/24 05:30:28;;;;;;;19.50;13.88;;;;;;;15.98;100.00;100221.44;5051288;28;20024;-71
2023/07/24 05:32:54;;;;;;;19.10;14.15;;;;;;;15.99;100.00;100215.47;5051377;28;20107;-72
2023/07/24 05:35:19;;;;;;;19.45;14.00;;;;;;;16.01;100.00;100212.34;5051365;28;20117;-72
2023/07/24 05:37:44;;;;;;;19.48;14.15;;;;;;;16.02;100.00;100225.94;5051267;28;20024;-72
2023/07/24 05:40:10;;;;;;;18.48;12.98;;;;;;;16.02;100.00;100209.19;5051211;28;20048;-72
2023/07/24 05:42:41;;;;;;;18.70;13.20;;;;;;;16.05;100.00;100216.03;5049895;28;20491;-72
2023/07/24 05:45:08;;;;;;;19.45;13.68;;;;;;;16.05;100.00;100219.66;5051317;28;20021;-72
2023/07/24 05:47:33;;;;;;;19.55;13.60;;;;;;;16.08;100.00;100217.28;5051220;28;20028;-72
2023/07/24 05:49:58;;;;;;;18.58;12.95;;;;;;;16.12;100.00;100218.19;5051103;28;20374;-71
2023/07/24 05:52:24;;;;;;;18.77;13.30;;;;;;;16.17;100.00;100227.13;5051202;28;20025;-72
2023/07/24 05:54:49;;;;;;;18.95;13.15;;;;;;;16.18;100.00;100223.16;5051149;28;20147;-72
2023/07/24 05:57:14;;;;;;;19.40;13.43;;;;;;;16.21;100.00;100230.78;5051013;28;20036;-72
2023/07/24 05:59:40;;;;;;;19.05;13.95;;;;;;;16.27;100.00;100222.97;5050976;28;20133;-72
2023/07/24 06:02:05;;;;;;;19.42;13.45;;;;;;;16.30;100.00;100236.22;5051140;28;20201;-71
2023/07/24 06:04:31;;;;;;;18.88;12.93;;;;;;;16.32;100.00;100233.88;5050886;28;20052;-72
2023/07/24 06:06:56;;;;;;;19.67;13.82;;;;;;;16.33;100.00;100224.34;5050981;28;20033;-72
2023/07/24 06:09:21;;;;;;;19.92;13.45;;;;;;;16.35;100.00;100230.34;5050906;28;20079;-72
2023/07/24 06:11:47;;;;;;;19.45;13.85;;;;;;;16.40;100.00;100239.63;5051024;28;20036;-72
2023/07/24 06:14:12;;;;;;;18.80;13.93;;;;;;;16.46;100.00;100240.97;5051097;28;20167;-72
2023/07/24 06:16:37;;;;;;;19.98;14.30;;;;;;;16.49;100.00;100224.28;5050830;28;20045;-72
2023/07/24 06:19:03;;;;;;;19.77;14.30;;;;;;;16.53;100.00;100230.78;5050834;28;20095;-72
2023/07/24 06:21:28;;;;;;;20.88;15.23;;;;;;;16.53;100.00;100222.41;5050720;28;20025;-72
2023/07/24 06:23:54;;;;;;;20.48;14.98;;;;;;;16.63;100.00;100237.78;5050723;28;20477;-72
2023/07/24 06:26:19;;;;;;;21.45;15.65;;;;;;;16.69;100.00;100229.94;5050638;28;20056;-73
2023/07/24 06:28:44;;;;;;;20.98;15.57;;;;;;;16.79;100.00;100234.19;5050590;28;20048;-73
2023/07/24 06:31:09;;;;;;;21.88;15.52;;;;;;;16.89;100.00;100236.41;5050745;28;20025;-73
2023/07/24 06:33:35;;;;;;;22.38;16.73;;;;;;;16.91;100.00;100234.03;5052763;28;20535;-72
2023/07/24 06:36:00;;;;;;;22.63;16.05;;;;;;;17.00;100.00;100233.88;5054749;28;20021;-72
2023/07/24 06:38:25;;;;;;;21.33;15.48;;;;;;;17.10;100.00;100235.28;5054633;28;20124;-72
2023/07/24 06:40:51;;;;;;;21.27;15.77;;;;;;;17.18;100.00;100234.28;5054497;28;20032;-72
2023/07/24 06:43:16;;;;;;;20.55;15.25;;;;;;;17.35;100.00;100233.03;5054546;28;20433;-72
2023/07/24 06:45:41;;;;;;;21.30;15.30;;;;;;;17.50;100.00;100241.72;5054433;28;20036;-72
2023/07/24 06:48:07;;;;;;;21.45;14.63;;;;;;;17.65;100.00;100235.22;5054454;28;20037;-71
2023/07/24 06:50:32;;;;;;;21.25;14.82;;;;;;;17.77;100.00;100242.63;5054498;28;20032;-72
2023/07/24 06:52:58;;;;;;;20.95;14.65;;;;;;;17.85;100.00;100238.00;5054304;28;20017;-71
2023/07/24 06:55:23;;;;;;;21.02;15.38;;;;;;;17.93;100.00;100240.56;5054240;28;20120;-72
2023/07/24 06:57:48;;;;;;;21.25;14.52;;;;;;;17.90;100.00;100237.72;5054323;28;20021;-72
2023/07/24 07:00:14;;;;;;;21.13;15.15;;;;;;;17.77;100.00;100237.03;5054200;28;20067;-72
2023/07/24 07:02:39;;;;;;;22.17;16.25;;;;;;;17.69;100.00;100227.72;5054172;28;20025;-72
2023/07/24 07:05:05;;;;;;;23.35;16.52;;;;;;;17.66;100.00;100228.44;5053975;28;20035;-71
2023/07/24 07:07:30;;;;;;;22.00;15.57;;;;;;;17.71;100.00;100238.53;5054244;28;20057;-71
2023/07/24 07:09:56;;;;;;;23.27;16.52;;;;;;;17.75;100.00;100242.22;5054101;28;20024;-71
2023/07/24 07:12:21;;;;;;;22.75;16.25;;;;;;;17.70;100.00;100245.31;5054230;28;20108;-71
2023/07/24 07:14:47;;;;;;;22.50;16.20;;;;;;;17.63;100.00;100240.38;5053918;28;20025;-71
2023/07/24 07:17:12;;;;;;;22.55;16.65;;;;;;;17.54;100.00;100239.78;5054075;28;20028;-71
2023/07/24 07:19:37;;;;;;;22.58;16.90;;;;;;;17.48;100.00;100250.47;5053944;28;20025;-71
2023/07/24 07:22:03;;;;;;;22.83;17.15;;;;;;;17.43;100.00;100237.56;5054088;28;20036;-72
2023/07/24 07:24:28;;;;;;;22.67;17.58;;;;;;;17.41;100.00;100242.75;5054005;28;20039;-72
2023/07/24 07:26:53;;;;;;;22.38;16.52;;;;;;;17.40;100.00;100245.91;5053857;28;20056;-72
2023/07/24 07:29:19;;;;;;;22.95;17.10;;;;;;;17.36;100.00;100251.41;5053945;28;20056;-73
2023/07/24 07:31:44;;;;;;;22.63;16.58;;;;;;;17.37;100.00;100238.25;5053591;28;20021;-73
2023/07/24 07:34:10;;;;;;;23.67;17.08;;;;;;;17.35;100.00;100235.81;5053702;28;20041;-72
2023/07/24 07:36:35;;;;;;;22.40;17.35;;;;;;;17.25;100.00;100231.63;5053761;28;20108;-72
2023/07/24 07:39:01;;;;;;;22.42;16.80;;;;;;;17.22;100.00;100234.34;5052829;28;20180;-72
2023/07/24 07:41:26;;;;;;;21.80;16.23;;;;;;;17.25;100.00;100231.63;5053587;28;20388;-71
2023/07/24 07:43:51;;;;;;;21.33;15.77;;;;;;;17.28;100.00;100227.28;5051949;28;20033;-71
2023/07/24 07:46:17;;;;;;;20.15;15.48;;;;;;;17.24;100.00;100227.22;5053512;28;20062;-72
2023/07/24 07:48:42;;;;;;;20.90;15.80;;;;;;;17.25;100.00;100233.59;5053321;28;20036;-71
2023/07/24 07:51:07;;;;;;;19.92;15.30;;;;;;;17.28;100.00;100235.66;5053228;28;20025;-71
2023/07/24 07:53:33;;;;;;;20.40;15.07;;;;;;;17.33;100.00;100240.16;5053244;28;20044;-71
2023/07/24 07:56:02;;;;;;;20.27;14.65;;;;;;;17.38;100.00;100237.09;5053173;28;20043;-72
2023/07/24 07:58:27;;;;;;;21.10;14.50;;;;;;;17.46;100.00;100236.84;5053187;28;20031;-71
2023/07/24 08:00:52;;;;;;;20.25;14.57;;;;;;;17.69;100.00;100236.13;5053152;28;20025;-72
2023/07/24 08:03:18;;;;;;;20.58;14.40;;;;;;;17.85;100.00;100233.22;5052944;28;20025;-71
2023/07/24 08:05:43;;;;;;;20.88;14.73;;;;;;;17.97;100.00;100239.84;5053087;28;20064;-70
2023/07/24 08:08:08;;;;;;;19.95;14.13;;;;;;;18.07;100.00;100225.22;5052991;28;20075;-71
2023/07/24 08:10:37;;;;;;;19.52;13.60;;;;;;;18.13;100.00;100220.97;5052946;28;20473;-71
2023/07/24 08:13:03;;;;;;;18.15;12.63;;;;;;;18.16;100.00;100233.41;5052967;28;20406;-71
2023/07/24 08:15:28;;;;;;;18.08;12.35;;;;;;;18.18;100.00;100231.81;5052888;28;20040;-71
2023/07/24 08:17:53;;;;;;;18.73;12.88;;;;;;;18.15;100.00;100235.38;5052821;28;20489;-71
2023/07/24 08:20:18;;;;;;;18.55;12.88;;;;;;;18.14;100.00;100246.94;5052552;28;20029;-71
2023/07/24 08:22:44;;;;;;;19.27;12.70;;;;;;;18.11;100.00;100253.28;5051320;28;20044;-72
2023/07/24 08:25:09;;;;;;;18.25;12.77;;;;;;;18.01;100.00;100251.91;5052688;28;20029;-72
2023/07/24 08:27:35;;;;;;;19.08;12.63;;;;;;;17.97;100.00;100256.63;5052436;28;20051;-72
2023/07/24 08:30:00;;;;;;;19.65;12.93;;;;;;;18.02;100.00;100248.75;5052461;28;20045;-72
2023/07/24 08:32:25;;;;;;;18.50;12.65;;;;;;;18.08;100.00;100235.25;5052495;28;20461;-72
2023/07/24 08:34:51;;;;;;;19.15;13.40;;;;;;;18.20;100.00;100234.25;5052802;28;20077;-71
2023/07/24 08:37:16;;;;;;;19.90;13.02;;;;;;;18.32;100.00;100236.88;5052614;28;20025;-71
2023/07/24 08:39:42;;;;;;;19.83;14.10;;;;;;;18.55;100.00;100230.44;5052215;28;20037;-71
2023/07/24 08:42:12;;;;;;;19.25;14.18;;;;;;;18.84;100.00;100234.47;5052347;28;20049;-71
2023/07/24 08:44:38;;;;;;;19.63;13.95;;;;;;;19.00;100.00;100239.13;5052137;28;20106;-71
2023/07/24 08:47:06;;;;;;;20.40;15.10;;;;;;;19.01;100.00;100247.16;5052164;28;20080;-73
2023/07/24 08:49:32;;;;;;;20.67;14.88;;;;;;;18.90;100.00;100236.94;5052105;28;20029;-72
2023/07/24 08:51:57;;;;;;;21.33;15.48;;;;;;;18.77;100.00;100222.34;5052092;28;20032;-72
2023/07/24 08:54:26;;;;;;;20.58;15.32;;;;;;;18.67;100.00;100232.22;5051701;28;20044;-71
2023/07/24 08:56:52;;;;;;;21.73;16.02;;;;;;;18.60;100.00;100220.91;5051916;28;20036;-70
2023/07/24 08:59:17;;;;;;;22.00;16.90;;;;;;;18.51;100.00;100226.75;5051913;28;20028;-71
2023/07/24 09:01:43;;;;;;;22.33;16.65;;;;;;;18.46;100.00;100229.91;5051982;28;20496;-70
2023/07/24 09:04:08;;;;;;;21.02;15.75;;;;;;;18.32;100.00;100227.66;5051817;28;20024;-70
2023/07/24 09:06:34;;;;;;;21.02;15.93;;;;;;;18.21;100.00;100233.06;5050190;28;20040;-70
2023/07/24 09:08:59;;;;;;;21.75;16.02;;;;;;;18.13;100.00;100225.72;5051651;28;20025;-70
2023/07/24 09:11:24;;;;;;;23.00;16.50;;;;;;;18.21;100.00;100222.69;5051654;28;20486;-70
2023/07/24 09:13:50;;;;;;;23.05;16.10;;;;;;;18.32;100.00;100217.25;5051599;28;20021;-70
2023/07/24 09:16:24;;;;;;;21.20;15.93;;;;;;;18.50;100.00;100211.97;5051650;28;20544;-70
2023/07/24 09:18:51;;;;;;;22.23;15.93;;;;;;;18.71;100.00;100205.03;5051490;28;20086;-71
2023/07/24 09:21:27;;;;;;;21.17;15.73;;;;;;;18.84;100.00;100191.66;5051645;28;20043;-70
2023/07/24 09:23:52;;;;;;;21.20;16.05;;;;;;;19.10;100.00;100204.03;5051523;28;20032;-71
2023/07/24 09:26:17;;;;;;;21.73;14.80;;;;;;;19.17;100.00;100176.91;5051628;28;20033;-71
2023/07/24 09:28:52;;;;;;;21.13;15.95;;;;;;;19.16;100.00;100180.06;5051259;28;20152;-70
2023/07/24 09:31:17;;;;;;;20.67;15.18;;;;;;;19.29;100.00;100183.44;5051488;28;20437;-70
2023/07/24 09:33:46;;;;;;;20.20;15.75;;;;;;;19.29;100.00;100186.22;5051390;28;20104;-71
2023/07/24 09:36:12;;;;;;;21.10;15.52;;;;;;;19.24;99.20;100180.97;5051256;28;20037;-70
2023/07/24 09:38:38;;;;;;;19.58;15.27;;;;;;;19.12;99.37;100188.44;5051034;28;20025;-70
2023/07/24 09:41:05;;;;;;;20.50;15.15;;;;;;;19.01;99.87;100176.28;5051076;28;20507;-70
2023/07/24 09:43:31;;;;;;;20.50;15.00;;;;;;;19.01;100.00;100170.66;5051382;28;20122;-70
2023/07/24 09:45:57;;;;;;;20.83;15.07;;;;;;;19.14;100.00;100168.41;5051157;28;20120;-71
2023/07/24 09:48:24;;;;;;;21.17;15.50;;;;;;;19.14;100.00;100162.81;5051145;28;20029;-70
2023/07/24 09:50:57;;;;;;;20.17;15.15;;;;;;;19.06;100.00;100161.94;5051026;28;20062;-71
2023/07/24 09:53:41;;;;;;;19.73;15.10;;;;;;;19.03;100.00;100151.47;5051229;28;20602;-71
2023/07/24 09:56:09;;;;;;;20.40;14.63;;;;;;;18.96;100.00;100143.78;5050966;28;20816;-71
2023/07/24 09:58:40;;;;;;;19.88;14.75;;;;;;;19.11;100.00;100144.78;5050860;28;20033;-70
2023/07/24 10:01:07;;;;;;;20.10;14.75;;;;;;;19.08;100.00;100159.53;5050864;28;20033;-71
2023/07/24 10:03:44;;;;;;;19.60;15.10;;;;;;;19.08;100.00;100159.53;5050921;28;20385;-70
2023/07/24 10:06:11;;;;;;;20.42;13.85;;;;;;;19.09;100.00;100146.34;5049243;28;20033;-70
2023/07/24 10:08:36;;;;;;;19.40;13.90;;;;;;;19.08;100.00;100139.91;5050701;28;20033;-70
2023/07/24 10:11:02;;;;;;;20.20;14.40;;;;;;;19.11;100.00;100130.75;5050960;28;20039;-70
2023/07/24 10:13:28;;;;;;;20.17;14.20;;;;;;;18.94;100.00;100134.16;5050853;28;20021;-70
2023/07/24 10:15:54;;;;;;;19.80;14.60;;;;;;;18.90;100.00;100136.06;5050822;28;20522;-70
2023/07/24 10:18:27;;;;;;;19.73;14.18;;;;;;;18.89;100.00;100151.28;5050826;28;20040;-71
2023/07/24 10:21:02;;;;;;;;;;;;;;;19.05;100.00;100157.53;5051249;28;20044;-71
2023/07/24 10:23:27;;;;;;;20.60;15.10;;;;;;;19.04;100.00;100167.13;5050711;28;19948;-70
2023/07/24 10:25:52;;;;;;;20.65;14.57;;;;;;;19.05;100.00;100165.94;5050800;28;20057;-70
2023/07/24 10:28:18;;;;;;;20.90;15.10;;;;;;;19.05;100.00;100174.34;5050506;28;20136;-70
2023/07/24 10:30:44;;;;;;;19.65;14.43;;;;;;;18.97;100.00;100175.44;5050638;28;20108;-70
2023/07/24 10:33:17;;;;;;;20.23;13.93;;;;;;;18.80;100.00;100185.97;5050362;28;20032;-70
2023/07/24 10:35:48;;;;;;;20.73;13.73;;;;;;;18.70;100.00;100186.66;5050655;28;20041;-70
2023/07/24 10:38:15;;;;;;;20.23;13.88;;;;;;;18.57;100.00;100185.25;5050554;28;20044;-70
2023/07/24 10:40:42;;;;;;;19.05;13.55;;;;;;;18.44;100.00;100185.44;5049106;28;20056;-70
2023/07/24 10:43:20;;;;;;;20.23;14.05;;;;;;;18.40;100.00;100181.78;5050608;28;20039;-71
2023/07/24 10:45:53;;;;;;;19.45;13.80;;;;;;;18.47;100.00;100164.28;5050846;28;20080;-72
2023/07/24 10:48:24;;;;;;;;;;;;;;;18.65;100.00;100179.38;5051333;28;20075;-71
2023/07/24 10:50:51;;;;;;;19.15;13.30;;;;;;;18.45;100.00;100175.06;5050561;28;19909;-71
2023/07/24 10:53:21;;;;;;;18.20;12.50;;;;;;;18.45;100.00;100186.28;5050330;28;20056;-71
2023/07/24 10:55:47;;;;;;;18.65;12.32;;;;;;;18.54;100.00;100195.22;5050374;28;20033;-71
2023/07/24 10:58:14;;;;;;;18.38;12.68;;;;;;;18.73;100.00;100201.88;5050371;28;20513;-71